sensor_id;sensor_type;location;lat;lon;timestamp;pressure;altitude;pressure_sealevel;temperature;humidity
35798;BME280;21918;49.940;7.774;2023-07-29T00:00:48;98176.91;;;25.40;58.05
35798;BME280;21918;49.940;7.774;2023-07-29T00:03:20;98183.47;;;25.37;58.17
35798;BME280;21918;49.940;7.774;2023-07-29T00:05:47;98183.47;;;25.37;58.19
35798;BME280;21918;49.940;7.774;2023-07-29T00:08:14;98173.81;;;25.35;57.98
35798;BME280;21918;49.940;7.774;2023-07-29T00:10:40;98183.47;;;25.37;58.16
35798;BME280;21918;49.940;7.774;2023-07-29T00:13:07;98174.63;;;25.35;58.06
35798;BME280;21918;49.940;7.774;2023-07-29T00:15:42;98176.22;;;25.36;57.96
35798;BME280;21918;49.940;7.774;2023-07-29T00:18:09;98173.72;;;25.38;57.69
35798;BME280;21918;49.940;7.774;2023-07-29T00:20:37;98174.25;;;25.33;57.76
35798;BME280;21918;49.940;7.774;2023-07-29T00:23:07;98181.63;;;25.31;58.09
35798;BME280;21918;49.940;7.774;2023-07-29T00:25:34;98165.47;;;25.28;57.95
35798;BME280;21918;49.940;7.774;2023-07-29T00:28:00;98168.31;;;25.28;57.87
35798;BME280;21918;49.940;7.774;2023-07-29T00:30:27;98165.91;;;25.26;58.17
35798;BME280;21918;49.940;7.774;2023-07-29T00:32:54;98166.72;;;25.27;57.80
35798;BME280;21918;49.940;7.774;2023-07-29T00:35:21;98154.06;;;25.31;57.94
35798;BME280;21918;49.940;7.774;2023-07-29T00:37:48;98165.75;;;25.33;57.57
35798;BME280;21918;49.940;7.774;2023-07-29T00:40:19;98159.72;;;25.31;57.92
35798;BME280;21918;49.940;7.774;2023-07-29T00:42:46;98159.00;;;25.27;58.09
35798;BME280;21918;49.940;7.774;2023-07-29T00:45:14;98148.09;;;25.26;57.74
35798;BME280;21918;49.940;7.774;2023-07-29T00:47:42;98140.94;;;25.21;58.02
35798;BME280;21918;49.940;7.774;2023-07-29T00:50:10;98134.94;;;25.19;57.86
35798;BME280;21918;49.940;7.774;2023-07-29T00:52:37;98147.16;;;25.16;57.76
35798;BME280;21918;49.940;7.774;2023-07-29T00:55:07;98144.31;;;25.16;57.80
35798;BME280;21918;49.940;7.774;2023-07-29T00:57:35;98133.78;;;25.17;57.97
35798;BME280;21918;49.940;7.774;2023-07-29T01:00:02;98136.50;;;25.20;57.92
35798;BME280;21918;49.940;7.774;2023-07-29T01:02:30;98147.41;;;25.22;57.77
35798;BME280;21918;49.940;7.774;2023-07-29T01:04:58;98139.28;;;25.24;57.93
35798;BME280;21918;49.940;7.774;2023-07-29T01:07:36;98139.28;;;25.24;57.54
35798;BME280;21918;49.940;7.774;2023-07-29T01:10:12;98130.41;;;25.22;57.63
35798;BME280;21918;49.940;7.774;2023-07-29T01:12:48;98134.38;;;25.24;57.60
35798;BME280;21918;49.940;7.774;2023-07-29T01:15:22;98140.41;;;25.26;57.74
35798;BME280;21918;49.940;7.774;2023-07-29T01:17:52;98129.06;;;25.26;57.55
35798;BME280;21918;49.940;7.774;2023-07-29T01:20:21;98125.09;;;25.24;57.49
35798;BME280;21918;49.940;7.774;2023-07-29T01:22:50;98127.22;;;25.20;57.65
35798;BME280;21918;49.940;7.774;2023-07-29T01:25:18;98129.59;;;25.21;57.47
35798;BME280;21918;49.940;7.774;2023-07-29T01:27:46;98120.31;;;25.21;57.52
35798;BME280;21918;49.940;7.774;2023-07-29T01:30:13;98115.09;;;25.19;57.72
35798;BME280;21918;49.940;7.774;2023-07-29T01:32:43;98121.66;;;25.16;57.80
35798;BME280;21918;49.940;7.774;2023-07-29T01:35:19;98121.72;;;25.13;57.76
35798;BME280;21918;49.940;7.774;2023-07-29T01:37:53;98130.59;;;25.15;57.68
35798;BME280;21918;49.940;7.774;2023-07-29T01:40:26;98129.00;;;25.14;57.49
35798;BME280;21918;49.940;7.774;2023-07-29T01:42:53;98136.19;;;25.18;57.69
35798;BME280;21918;49.940;7.774;2023-07-29T01:45:23;98129.72;;;25.18;57.52
35798;BME280;21918;49.940;7.774;2023-07-29T01:47:49;98126.06;;;25.17;57.37
35798;BME280;21918;49.940;7.774;2023-07-29T01:50:22;98121.66;;;25.16;57.15
35798;BME280;21918;49.940;7.774;2023-07-29T01:52:48;98115.28;;;25.12;57.37
35798;BME280;21918;49.940;7.774;2023-07-29T01:55:17;98121.84;;;25.09;57.86
35798;BME280;21918;49.940;7.774;2023-07-29T01:57:46;98121.84;;;25.09;57.83
35798;BME280;21918;49.940;7.774;2023-07-29T02:00:15;98124.31;;;25.07;57.73
35798;BME280;21918;49.940;7.774;2023-07-29T02:02:50;98123.72;;;25.00;57.99
35798;BME280;21918;49.940;7.774;2023-07-29T02:05:17;98121.13;;;25.05;57.97
35798;BME280;21918;49.940;7.774;2023-07-29T02:07:46;98121.84;;;25.09;58.31
35798;BME280;21918;49.940;7.774;2023-07-29T02:10:13;98117.75;;;25.10;57.97
35798;BME280;21918;49.940;7.774;2023-07-29T02:12:40;98102.44;;;25.08;58.10
35798;BME280;21918;49.940;7.774;2023-07-29T02:15:09;98106.53;;;25.07;58.29
35798;BME280;21918;49.940;7.774;2023-07-29T02:17:36;98096.78;;;25.08;58.39
35798;BME280;21918;49.940;7.774;2023-07-29T02:20:04;98104.84;;;25.09;58.42
35798;BME280;21918;49.940;7.774;2023-07-29T02:22:31;98104.38;;;25.11;58.17
35798;BME280;21918;49.940;7.774;2023-07-29T02:24:57;98095.88;;;25.11;58.27
35798;BME280;21918;49.940;7.774;2023-07-29T02:27:28;98092.63;;;25.12;58.07
35798;BME280;21918;49.940;7.774;2023-07-29T02:29:54;98076.06;;;25.11;58.22
35798;BME280;21918;49.940;7.774;2023-07-29T02:32:23;98084.63;;;25.07;58.20
35798;BME280;21918;49.940;7.774;2023-07-29T02:34:50;98083.50;;;25.05;58.13
35798;BME280;21918;49.940;7.774;2023-07-29T02:37:17;98081.91;;;25.04;58.37
35798;BME280;21918;49.940;7.774;2023-07-29T02:39:45;98084.31;;;25.05;58.27
35798;BME280;21918;49.940;7.774;2023-07-29T02:42:12;98083.06;;;25.06;58.48
35798;BME280;21918;49.940;7.774;2023-07-29T02:44:41;98076.56;;;25.06;58.66
35798;BME280;21918;49.940;7.774;2023-07-29T02:47:07;98080.22;;;25.06;58.43
35798;BME280;21918;49.940;7.774;2023-07-29T02:49:35;98079.84;;;25.04;58.44
35798;BME280;21918;49.940;7.774;2023-07-29T02:52:05;98078.28;;;25.03;58.67
35798;BME280;21918;49.940;7.774;2023-07-29T02:54:34;98081.09;;;25.03;58.89
35798;BME280;21918;49.940;7.774;2023-07-29T02:57:03;98076.69;;;25.02;58.84
35798;BME280;21918;49.940;7.774;2023-07-29T02:59:30;98077.81;;;25.05;58.81
35798;BME280;21918;49.940;7.774;2023-07-29T03:01:59;98077.38;;;25.06;58.55
35798;BME280;21918;49.940;7.774;2023-07-29T03:04:28;98074.56;;;25.06;58.62
35798;BME280;21918;49.940;7.774;2023-07-29T03:06:56;98078.09;;;25.10;58.31
35798;BME280;21918;49.940;7.774;2023-07-29T03:09:26;98073.22;;;25.11;58.36
35798;BME280;21918;49.940;7.774;2023-07-29T03:11:53;98066.75;;;25.10;58.50
35798;BME280;21918;49.940;7.774;2023-07-29T03:14:20;98070.03;;;25.09;58.45
35798;BME280;21918;49.940;7.774;2023-07-29T03:16:49;98070.13;;;25.05;58.40
35798;BME280;21918;49.940;7.774;2023-07-29T03:19:16;98067.38;;;25.02;58.19
35798;BME280;21918;49.940;7.774;2023-07-29T03:21:42;98055.28;;;25.01;58.53
35798;BME280;21918;49.940;7.774;2023-07-29T03:24:10;98054.34;;;25.04;58.39
35798;BME280;21918;49.940;7.774;2023-07-29T03:26:37;98045.84;;;25.04;58.18
35798;BME280;21918;49.940;7.774;2023-07-29T03:29:06;98044.97;;;25.07;58.46
35798;BME280;21918;49.940;7.774;2023-07-29T03:31:33;98040.09;;;25.08;58.58
35798;BME280;21918;49.940;7.774;2023-07-29T03:34:00;98048.16;;;25.09;58.56
35798;BME280;21918;49.940;7.774;2023-07-29T03:36:26;98048.63;;;25.08;58.48
35798;BME280;21918;49.940;7.774;2023-07-29T03:38:53;98044.09;;;25.10;58.51
35798;BME280;21918;49.940;7.774;2023-07-29T03:41:23;98049.06;;;25.06;58.35
35798;BME280;21918;49.940;7.774;2023-07-29T03:43:53;98053.31;;;24.98;58.60
35798;BME280;21918;49.940;7.774;2023-07-29T03:46:20;98037.91;;;24.99;58.72
35798;BME280;21918;49.940;7.774;2023-07-29T03:48:47;98043.38;;;25.06;58.66
35798;BME280;21918;49.940;7.774;2023-07-29T03:51:13;98044.09;;;25.10;58.57
35798;BME280;21918;49.940;7.774;2023-07-29T03:53:40;98042.06;;;25.11;58.58
35798;BME280;21918;49.940;7.774;2023-07-29T03:56:08;98033.19;;;25.09;58.49
35798;BME280;21918;49.940;7.774;2023-07-29T03:58:37;98041.38;;;25.07;58.34
35798;BME280;21918;49.940;7.774;2023-07-29T04:01:04;98041.69;;;25.09;58.57
35798;BME280;21918;49.940;7.774;2023-07-29T04:03:31;98038.84;;;25.09;58.49
35798;BME280;21918;49.940;7.774;2023-07-29T04:06:03;98036.03;;;25.09;58.48
35798;BME280;21918;49.940;7.774;2023-07-29T04:08:30;98032.75;;;25.10;58.53
35798;BME280;21918;49.940;7.774;2023-07-29T04:10:57;98036.03;;;25.09;58.73
35798;BME280;21918;49.940;7.774;2023-07-29T04:13:23;98039.22;;;25.11;58.46
35798;BME280;21918;49.940;7.774;2023-07-29T04:15:52;98044.78;;;25.14;58.67
35798;BME280;21918;49.940;7.774;2023-07-29T04:18:20;98042.31;;;25.16;58.22
35798;BME280;21918;49.940;7.774;2023-07-29T04:20:50;98042.31;;;25.16;58.18
35798;BME280;21918;49.940;7.774;2023-07-29T04:23:17;98042.75;;;25.15;58.15
35798;BME280;21918;49.940;7.774;2023-07-29T04:25:43;98047.16;;;25.16;58.33
35798;BME280;21918;49.940;7.774;2023-07-29T04:28:10;98047.97;;;25.16;58.54
35798;BME280;21918;49.940;7.774;2023-07-29T04:30:37;98043.13;;;25.17;58.59
35798;BME280;21918;49.940;7.774;2023-07-29T04:33:05;98050.38;;;25.18;58.30
35798;BME280;21918;49.940;7.774;2023-07-29T04:35:31;98042.66;;;25.18;58.23
35798;BME280;21918;49.940;7.774;2023-07-29T04:38:03;98034.16;;;25.18;58.47
35798;BME280;21918;49.940;7.774;2023-07-29T04:40:32;98039.84;;;25.18;58.46
35798;BME280;21918;49.940;7.774;2023-07-29T04:43:00;98036.53;;;25.20;58.53
35798;BME280;21918;49.940;7.774;2023-07-29T04:45:28;98030.09;;;25.19;58.32
35798;BME280;21918;49.940;7.774;2023-07-29T04:47:54;98025.19;;;25.20;58.24
35798;BME280;21918;49.940;7.774;2023-07-29T04:50:22;98028.81;;;25.20;58.14
35798;BME280;21918;49.940;7.774;2023-07-29T04:52:49;98026.00;;;25.20;58.21
35798;BME280;21918;49.940;7.774;2023-07-29T04:55:19;98035.63;;;25.23;58.59
35798;BME280;21918;49.940;7.774;2023-07-29T04:57:46;98042.09;;;25.23;58.51
35798;BME280;21918;49.940;7.774;2023-07-29T05:00:13;98039.97;;;25.27;58.23
35798;BME280;21918;49.940;7.774;2023-07-29T05:02:42;98047.69;;;25.27;58.27
35798;BME280;21918;49.940;7.774;2023-07-29T05:05:09;98040.41;;;25.26;58.26
35798;BME280;21918;49.940;7.774;2023-07-29T05:07:39;98049.72;;;25.26;58.21
35798;BME280;21918;49.940;7.774;2023-07-29T05:10:07;98049.34;;;25.24;58.47
35798;BME280;21918;49.940;7.774;2023-07-29T05:12:34;98047.78;;;25.23;58.50
35798;BME280;21918;49.940;7.774;2023-07-29T05:15:04;98053.34;;;25.27;58.24
35798;BME280;21918;49.940;7.774;2023-07-29T05:17:31;98067.09;;;25.28;58.44
35798;BME280;21918;49.940;7.774;2023-07-29T05:19:57;98077.94;;;25.30;58.18
35798;BME280;21918;49.940;7.774;2023-07-29T05:22:24;98085.25;;;25.31;58.04
35798;BME280;21918;49.940;7.774;2023-07-29T05:24:52;98074.41;;;25.26;58.22
35798;BME280;21918;49.940;7.774;2023-07-29T05:27:19;98081.53;;;25.18;58.92
35798;BME280;21918;49.940;7.774;2023-07-29T05:29:45;98073.13;;;25.14;59.16
35798;BME280;21918;49.940;7.774;2023-07-29T05:32:12;98067.81;;;25.16;58.82
35798;BME280;21918;49.940;7.774;2023-07-29T05:34:39;98064.63;;;25.14;59.05
35798;BME280;21918;49.940;7.774;2023-07-29T05:37:05;98057.09;;;25.08;58.94
35798;BME280;21918;49.940;7.774;2023-07-29T05:39:33;98061.38;;;25.00;59.58
35798;BME280;21918;49.940;7.774;2023-07-29T05:42:01;98072.78;;;24.96;59.56
35798;BME280;21918;49.940;7.774;2023-07-29T05:44:31;98055.97;;;24.89;60.16
35798;BME280;21918;49.940;7.774;2023-07-29T05:47:00;98053.66;;;24.84;60.17
35798;BME280;21918;49.940;7.774;2023-07-29T05:49:28;98047.41;;;24.77;60.46
35798;BME280;21918;49.940;7.774;2023-07-29T05:51:55;98055.53;;;24.75;60.73
35798;BME280;21918;49.940;7.774;2023-07-29T05:54:22;98043.53;;;24.71;61.17
35798;BME280;21918;49.940;7.774;2023-07-29T05:56:54;98048.03;;;24.68;61.08
35798;BME280;21918;49.940;7.774;2023-07-29T05:59:22;98043.59;;;24.67;61.10
35798;BME280;21918;49.940;7.774;2023-07-29T06:01:49;98040.00;;;24.67;61.32
35798;BME280;21918;49.940;7.774;2023-07-29T06:04:16;98019.38;;;24.66;61.38
35798;BME280;21918;49.940;7.774;2023-07-29T06:06:42;98012.13;;;24.65;61.48
35798;BME280;21918;49.940;7.774;2023-07-29T06:09:09;98006.44;;;24.65;61.53
35798;BME280;21918;49.940;7.774;2023-07-29T06:11:36;98023.44;;;24.65;61.40
35798;BME280;21918;49.940;7.774;2023-07-29T06:14:03;98048.56;;;24.63;61.41
35798;BME280;21918;49.940;7.774;2023-07-29T06:16:33;98069.66;;;24.58;61.82
35798;BME280;21918;49.940;7.774;2023-07-29T06:19:00;98064.88;;;24.55;62.03
35798;BME280;21918;49.940;7.774;2023-07-29T06:21:27;98051.97;;;24.54;61.80
35798;BME280;21918;49.940;7.774;2023-07-29T06:23:54;97997.75;;;24.56;61.68
35798;BME280;21918;49.940;7.774;2023-07-29T06:26:23;98001.38;;;24.56;61.77
35798;BME280;21918;49.940;7.774;2023-07-29T06:28:50;98035.88;;;24.51;61.86
35798;BME280;21918;49.940;7.774;2023-07-29T06:31:17;98059.41;;;24.48;62.47
35798;BME280;21918;49.940;7.774;2023-07-29T06:33:45;98075.06;;;24.53;62.36
35798;BME280;21918;49.940;7.774;2023-07-29T06:36:12;98090.84;;;24.54;62.43
35798;BME280;21918;49.940;7.774;2023-07-29T06:38:38;98111.25;;;24.61;62.40
35798;BME280;21918;49.940;7.774;2023-07-29T06:41:06;98118.13;;;24.64;62.32
35798;BME280;21918;49.940;7.774;2023-07-29T06:43:33;98118.13;;;24.64;62.29
35798;BME280;21918;49.940;7.774;2023-07-29T06:46:02;98106.78;;;24.64;62.34
35798;BME280;21918;49.940;7.774;2023-07-29T06:48:29;98099.06;;;24.64;62.42
35798;BME280;21918;49.940;7.774;2023-07-29T06:50:57;98106.00;;;24.63;62.52
35798;BME280;21918;49.940;7.774;2023-07-29T06:53:25;98113.25;;;24.64;62.36
35798;BME280;21918;49.940;7.774;2023-07-29T06:55:52;98107.50;;;24.68;62.61
35798;BME280;21918;49.940;7.774;2023-07-29T06:58:19;98113.88;;;24.72;62.25
35798;BME280;21918;49.940;7.774;2023-07-29T07:00:46;98114.75;;;24.69;62.58
35798;BME280;21918;49.940;7.774;2023-07-29T07:03:12;98113.50;;;24.70;62.37
35798;BME280;21918;49.940;7.774;2023-07-29T07:05:39;98106.97;;;24.73;62.64
35798;BME280;21918;49.940;7.774;2023-07-29T07:08:10;98101.66;;;24.75;62.42
35798;BME280;21918;49.940;7.774;2023-07-29T07:10:37;98085.38;;;24.79;62.56
35798;BME280;21918;49.940;7.774;2023-07-29T07:13:03;98097.41;;;24.83;62.47
35798;BME280;21918;49.940;7.774;2023-07-29T07:15:31;98095.28;;;24.87;62.64
35798;BME280;21918;49.940;7.774;2023-07-29T07:18:00;98091.56;;;24.90;62.24
35798;BME280;21918;49.940;7.774;2023-07-29T07:20:27;98096.44;;;24.90;62.27
35798;BME280;21918;49.940;7.774;2023-07-29T07:22:53;98110.06;;;24.95;62.56
35798;BME280;21918;49.940;7.774;2023-07-29T07:25:23;98116.78;;;25.01;62.52
35798;BME280;21918;49.940;7.774;2023-07-29T07:27:49;98119.53;;;25.04;62.47
35798;BME280;21918;49.940;7.774;2023-07-29T07:30:16;98109.25;;;25.10;62.54
35798;BME280;21918;49.940;7.774;2023-07-29T07:32:43;98107.03;;;25.18;62.36
35798;BME280;21918;49.940;7.774;2023-07-29T07:35:10;98106.47;;;25.23;62.35
35798;BME280;21918;49.940;7.774;2023-07-29T07:37:37;98107.66;;;25.25;62.46
35798;BME280;21918;49.940;7.774;2023-07-29T07:40:05;98103.94;;;25.28;62.43
35798;BME280;21918;49.940;7.774;2023-07-29T07:42:34;98109.53;;;25.32;62.45
35798;BME280;21918;49.940;7.774;2023-07-29T07:45:01;98108.53;;;25.38;62.14
35798;BME280;21918;49.940;7.774;2023-07-29T07:47:27;98106.22;;;25.49;62.29
35798;BME280;21918;49.940;7.774;2023-07-29T07:49:54;98110.78;;;25.59;62.16
35798;BME280;21918;49.940;7.774;2023-07-29T07:52:21;98093.13;;;25.68;61.75
35798;BME280;21918;49.940;7.774;2023-07-29T07:54:51;98099.84;;;25.74;61.69
35798;BME280;21918;49.940;7.774;2023-07-29T07:57:18;98107.34;;;25.80;61.59
35798;BME280;21918;49.940;7.774;2023-07-29T07:59:46;98110.53;;;25.82;61.95
35798;BME280;21918;49.940;7.774;2023-07-29T08:02:18;98108.84;;;25.85;61.75
35798;BME280;21918;49.940;7.774;2023-07-29T08:04:45;98110.66;;;25.91;61.76
35798;BME280;21918;49.940;7.774;2023-07-29T08:07:12;98108.97;;;25.94;61.72
35798;BME280;21918;49.940;7.774;2023-07-29T08:09:39;98102.31;;;26.00;61.69
35798;BME280;21918;49.940;7.774;2023-07-29T08:12:08;98098.91;;;26.05;61.53
35798;BME280;21918;49.940;7.774;2023-07-29T08:14:39;98099.19;;;26.11;61.43
35798;BME280;21918;49.940;7.774;2023-07-29T08:17:07;98099.50;;;26.13;61.52
35798;BME280;21918;49.940;7.774;2023-07-29T08:19:34;98096.13;;;26.18;61.54
35798;BME280;21918;49.940;7.774;2023-07-29T08:22:02;98099.66;;;26.22;61.73
35798;BME280;21918;49.940;7.774;2023-07-29T08:24:29;98103.16;;;26.26;61.25
35798;BME280;21918;49.940;7.774;2023-07-29T08:26:58;98100.91;;;26.33;61.43
35798;BME280;21918;49.940;7.774;2023-07-29T08:29:24;98109.22;;;26.40;61.37
35798;BME280;21918;49.940;7.774;2023-07-29T08:31:51;98101.72;;;26.46;61.09
35798;BME280;21918;49.940;7.774;2023-07-29T08:34:19;98107.63;;;26.52;61.21
35798;BME280;21918;49.940;7.774;2023-07-29T08:36:46;98100.59;;;26.56;61.31
35798;BME280;21918;49.940;7.774;2023-07-29T08:39:12;98102.50;;;26.59;61.12
35798;BME280;21918;49.940;7.774;2023-07-29T08:41:43;98105.25;;;26.63;61.04
35798;BME280;21918;49.940;7.774;2023-07-29T08:44:17;98104.81;;;26.64;61.00
35798;BME280;21918;49.940;7.774;2023-07-29T08:46:44;98108.31;;;26.68;61.05
35798;BME280;21918;49.940;7.774;2023-07-29T08:49:12;98111.38;;;26.74;60.95
35798;BME280;21918;49.940;7.774;2023-07-29T08:51:42;98104.34;;;26.78;60.97
35798;BME280;21918;49.940;7.774;2023-07-29T08:54:09;98115.94;;;26.84;60.75
35798;BME280;21918;49.940;7.774;2023-07-29T08:56:40;98102.19;;;26.82;60.48
35798;BME280;21918;49.940;7.774;2023-07-29T08:59:10;98096.16;;;26.80;60.58
35798;BME280;21918;49.940;7.774;2023-07-29T09:01:37;98103.53;;;26.78;60.57
35798;BME280;21918;49.940;7.774;2023-07-29T09:04:05;98114.44;;;26.79;60.91
35798;BME280;21918;49.940;7.774;2023-07-29T09:06:32;98112.31;;;26.83;60.95
35798;BME280;21918;49.940;7.774;2023-07-29T09:09:04;98123.09;;;26.88;61.14
35798;BME280;21918;49.940;7.774;2023-07-29T09:11:32;98122.63;;;26.90;61.08
35798;BME280;21918;49.940;7.774;2023-07-29T09:13:59;98127.88;;;26.91;60.95
35798;BME280;21918;49.940;7.774;2023-07-29T09:16:29;98120.00;;;26.95;60.91
35798;BME280;21918;49.940;7.774;2023-07-29T09:19:00;98116.59;;;27.01;60.78
35798;BME280;21918;49.940;7.774;2023-07-29T09:21:28;98115.56;;;27.07;60.78
35798;BME280;21918;49.940;7.774;2023-07-29T09:23:55;98116.22;;;27.11;60.51
35798;BME280;21918;49.940;7.774;2023-07-29T09:26:27;98112.63;;;27.11;60.49
35798;BME280;21918;49.940;7.774;2023-07-29T09:28:58;98115.78;;;27.13;60.66
35798;BME280;21918;49.940;7.774;2023-07-29T09:31:26;98118.97;;;27.15;60.35
35798;BME280;21918;49.940;7.774;2023-07-29T09:33:55;98115.78;;;27.13;60.42
35798;BME280;21918;49.940;7.774;2023-07-29T09:36:22;98112.72;;;27.07;60.52
35798;BME280;21918;49.940;7.774;2023-07-29T09:38:52;98114.44;;;27.05;60.67
35798;BME280;21918;49.940;7.774;2023-07-29T09:41:19;98103.53;;;27.03;60.96
35798;BME280;21918;49.940;7.774;2023-07-29T09:43:47;98108.16;;;27.10;60.75
35798;BME280;21918;49.940;7.774;2023-07-29T09:46:13;98111.34;;;27.12;60.56
35798;BME280;21918;49.940;7.774;2023-07-29T09:48:40;98112.13;;;27.12;60.58
35798;BME280;21918;49.940;7.774;2023-07-29T09:51:11;98114.88;;;27.16;60.61
35798;BME280;21918;49.940;7.774;2023-07-29T09:53:43;98119.63;;;27.19;60.98
35798;BME280;21918;49.940;7.774;2023-07-29T09:56:10;98119.16;;;27.33;60.86
35798;BME280;21918;49.940;7.774;2023-07-29T09:58:38;98120.59;;;27.50;61.01
35798;BME280;21918;49.940;7.774;2023-07-29T10:01:11;98112.81;;;27.63;60.61
35798;BME280;21918;49.940;7.774;2023-07-29T10:03:38;98111.44;;;27.67;60.18
35798;BME280;21918;49.940;7.774;2023-07-29T10:06:06;98100.72;;;27.71;59.83
35798;BME280;21918;49.940;7.774;2023-07-29T10:08:33;98100.59;;;27.75;60.45
35798;BME280;21918;49.940;7.774;2023-07-29T10:11:05;98109.56;;;27.86;60.57
35798;BME280;21918;49.940;7.774;2023-07-29T10:13:33;98118.75;;;27.90;60.11
35798;BME280;21918;49.940;7.774;2023-07-29T10:16:03;98117.03;;;27.92;60.20
35798;BME280;21918;49.940;7.774;2023-07-29T10:18:34;98117.16;;;27.89;59.73
35798;BME280;21918;49.940;7.774;2023-07-29T10:21:02;98121.81;;;27.83;59.86
35798;BME280;21918;49.940;7.774;2023-07-29T10:23:32;98125.84;;;27.73;60.17
35798;BME280;21918;49.940;7.774;2023-07-29T10:26:05;98123.13;;;27.69;60.11
35798;BME280;21918;49.940;7.774;2023-07-29T10:28:32;98111.09;;;27.65;60.22
35798;BME280;21918;49.940;7.774;2023-07-29T10:31:00;98107.13;;;27.63;60.46
35798;BME280;21918;49.940;7.774;2023-07-29T10:33:30;98109.97;;;27.63;60.31
35798;BME280;21918;49.940;7.774;2023-07-29T10:36:03;98116.56;;;27.60;60.57
35798;BME280;21918;49.940;7.774;2023-07-29T10:38:32;98111.16;;;27.53;60.53
35798;BME280;21918;49.940;7.774;2023-07-29T10:41:02;98096.72;;;27.47;60.74
35798;BME280;21918;49.940;7.774;2023-07-29T10:43:33;98103.66;;;27.46;60.79
35798;BME280;21918;49.940;7.774;2023-07-29T10:46:15;98117.34;;;27.39;61.35
35798;BME280;21918;49.940;7.774;2023-07-29T10:48:52;98115.16;;;27.43;61.02
35798;BME280;21918;49.940;7.774;2023-07-29T10:51:29;98128.31;;;27.49;61.58
35798;BME280;21918;49.940;7.774;2023-07-29T10:54:02;98116.66;;;27.69;61.42
35798;BME280;21918;49.940;7.774;2023-07-29T10:56:30;98121.81;;;27.83;61.40
35798;BME280;21918;49.940;7.774;2023-07-29T10:59:03;98116.81;;;27.87;61.06
35798;BME280;21918;49.940;7.774;2023-07-29T11:01:56;98117.53;;;27.78;60.80
35798;BME280;21918;49.940;7.774;2023-07-29T11:04:26;98107.88;;;27.76;60.89
35798;BME280;21918;49.940;7.774;2023-07-29T11:07:23;98111.53;;;27.64;61.13
35798;BME280;21918;49.940;7.774;2023-07-29T11:09:58;98109.88;;;27.88;61.31
35798;BME280;21918;49.940;7.774;2023-07-29T11:12:42;98095.91;;;28.02;62.17
35798;BME280;21918;49.940;7.774;2023-07-29T11:15:21;98087.22;;;28.27;61.00
35798;BME280;21918;49.940;7.774;2023-07-29T11:17:54;98081.50;;;28.49;60.79
35798;BME280;21918;49.940;7.774;2023-07-29T11:20:29;98083.16;;;28.68;60.15
35798;BME280;21918;49.940;7.774;2023-07-29T11:22:59;98081.09;;;28.77;59.53
35798;BME280;21918;49.940;7.774;2023-07-29T11:25:28;98088.16;;;28.94;59.73
35798;BME280;21918;49.940;7.774;2023-07-29T11:27:56;98084.56;;;29.12;59.17
35798;BME280;21918;49.940;7.774;2023-07-29T11:30:23;98084.91;;;29.23;58.26
35798;BME280;21918;49.940;7.774;2023-07-29T11:32:53;98079.38;;;29.19;57.68
35798;BME280;21918;49.940;7.774;2023-07-29T11:35:20;98083.94;;;29.26;57.64
35798;BME280;21918;49.940;7.774;2023-07-29T11:37:48;98083.66;;;29.24;57.13
35798;BME280;21918;49.940;7.774;2023-07-29T11:40:17;98076.53;;;29.29;57.12
35798;BME280;21918;49.940;7.774;2023-07-29T11:42:45;98076.53;;;29.38;56.61
35798;BME280;21918;49.940;7.774;2023-07-29T11:45:19;98075.72;;;29.46;57.05
35798;BME280;21918;49.940;7.774;2023-07-29T11:47:46;98083.50;;;29.55;56.71
35798;BME280;21918;49.940;7.774;2023-07-29T11:50:14;98077.97;;;29.51;56.14
35798;BME280;21918;49.940;7.774;2023-07-29T11:52:45;98068.75;;;29.56;55.52
35798;BME280;21918;49.940;7.774;2023-07-29T11:55:14;98064.97;;;29.50;55.70
35798;BME280;21918;49.940;7.774;2023-07-29T11:57:43;98073.81;;;29.43;55.14
35798;BME280;21918;49.940;7.774;2023-07-29T12:00:11;98070.97;;;29.25;55.00
35798;BME280;21918;49.940;7.774;2023-07-29T12:02:41;98065.72;;;29.23;55.40
35798;BME280;21918;49.940;7.774;2023-07-29T12:05:13;98067.50;;;29.30;55.99
35798;BME280;21918;49.940;7.774;2023-07-29T12:07:44;98069.72;;;29.44;56.39
35798;BME280;21918;49.940;7.774;2023-07-29T12:10:17;98068.47;;;29.54;55.68
35798;BME280;21918;49.940;7.774;2023-07-29T12:12:49;98069.41;;;29.60;54.49
35798;BME280;21918;49.940;7.774;2023-07-29T12:15:25;98072.09;;;29.55;55.20
35798;BME280;21918;49.940;7.774;2023-07-29T12:17:58;98069.28;;;29.64;55.38
35798;BME280;21918;49.940;7.774;2023-07-29T12:20:25;98071.81;;;29.71;54.46
35798;BME280;21918;49.940;7.774;2023-07-29T12:22:53;98073.56;;;29.77;54.61
35798;BME280;21918;49.940;7.774;2023-07-29T12:25:23;98075.63;;;29.86;53.94
35798;BME280;21918;49.940;7.774;2023-07-29T12:27:51;98071.81;;;29.80;53.90
35798;BME280;21918;49.940;7.774;2023-07-29T12:30:21;98067.69;;;29.81;54.18
35798;BME280;21918;49.940;7.774;2023-07-29T12:32:48;98075.63;;;29.86;53.69
35798;BME280;21918;49.940;7.774;2023-07-29T12:35:15;98071.47;;;29.87;54.05
35798;BME280;21918;49.940;7.774;2023-07-29T12:37:43;98072.25;;;29.87;54.16
35798;BME280;21918;49.940;7.774;2023-07-29T12:40:25;98075.75;;;29.82;54.44
35798;BME280;21918;49.940;7.774;2023-07-29T12:42:54;98068.44;;;29.99;53.75
35798;BME280;21918;49.940;7.774;2023-07-29T12:45:21;98081.91;;;30.08;52.16
35798;BME280;21918;49.940;7.774;2023-07-29T12:47:51;98076.06;;;30.11;51.33
35798;BME280;21918;49.940;7.774;2023-07-29T12:50:18;98067.28;;;30.15;52.12
35798;BME280;21918;49.940;7.774;2023-07-29T12:52:44;98064.63;;;30.20;52.00
35798;BME280;21918;49.940;7.774;2023-07-29T12:55:22;98079.34;;;30.28;51.27
35798;BME280;21918;49.940;7.774;2023-07-29T12:57:50;98071.88;;;30.39;49.71
35798;BME280;21918;49.940;7.774;2023-07-29T13:00:18;98076.47;;;30.37;50.12
35798;BME280;21918;49.940;7.774;2023-07-29T13:02:48;98077.94;;;30.32;49.62
35798;BME280;21918;49.940;7.774;2023-07-29T13:05:17;98055.03;;;30.41;48.72
35798;BME280;21918;49.940;7.774;2023-07-29T13:07:46;98054.06;;;30.44;48.29